My Meet Scores
Isla Riddle, Phenom Gymnastics - MyMeetScores.com
Top100 | Top Teams | Upcoming Meets | Completed Meets | Latest | Add Scores | Help| Support | Bookmark and Share

Isla Riddle, Phenom Gymnastics
Personal Bests
LevelVault BarsBeamFloorAA
39.7258.925 9.3259.45037.300
49.2259.050 9.3259.47536.900
59.6009.200 9.0009.40036.525
79.6259.475 9.4759.52537.525
89.1509.325 9.3509.60036.875
Meet Scores
Date Meet Team Session Level Division Vault Bars Beam Floor AA
2018-03-23 Illinois Level 7 & 8 State Competition Phenom Gymnastics 04 8 Jr A 9.075 16 8.800 20 9.350 15T 9.175 21 36.400 18
2018-03-02 2018 Flip'r Invitational Phenom Gymnastics 9 8 Jr 8.600 8 9.150 8 9.250 6 9.600 4 36.600 6
2018-02-23 Kinetic Classic Phenom Gymnastics 2 8 Younger 8.550 22T 8.925 22 8.300 31 9.350 6T 35.125 23
2018-02-16 2018 Magical Classic Phenom Gymnastics A2 8 Group 1 7.950 6 9.075 9 8.700 11 8.950 7T 34.675 7
2018-01-19 2018 Bravo Classic Phenom Gymnastics 5A 8 Child 0.000 19T 9.125 10 8.500 17 9.200 7 26.825 19
2018-01-12 St Jude Benefit Meet Phenom Gymnastics 3B 8 JrA 9.150 6 8.800 12 8.625 12 9.125 7 35.700 9
2017-12-15 2017 Aspire Classic Phenom Gymnastics 7B 8 Younger 8.800 13 9.325 8 9.150 7 9.600 2 36.875 9
2017-03-23 2017 Illinois Level 6, 7 State Championship Phenom Gymnastics 1 7 Jr A 9.250 13T 9.075 24 0.000 32 18.325 32
2017-03-10 Lucky Invitational Phenom Gymnastics A07 7 Jr A 9.550 1 9.100 12 9.375 8 9.350 11 37.375 4
2017-02-17 Big Classic Phenom Gymnastics A 7 Junior A 9.625 1T 9.475 5T 9.150 7 9.275 14T 37.525 4
2017-01-20 2017 Bravo Classic Phenom Gymnastics 12A 7 7-10yrs 9.300 11 9.250 12 9.275 11 9.525 8T 37.350 11
2016-12-16 2016 Aspire Classic Phenom Gymnastics 1 7 Younger 9.400 2 8.250 19 9.475 1 9.400 9T 36.525 10
2016-12-02 Ultimate Wish Classic Phenom Gymnastics 7 7 Child 9.500 1 8.900 10 9.200 4 9.400 3 37.000 3
2016-04-22 2016 Illinois Level 5 And Xcel State Championships Phenom Gymnastics 3 5 Ch A 9.600 1 8.950 9T 8.325 21 9.400 1T 36.275 8
2016-02-20 Big Classic Phenom Gymnastics 11B 5 Child A 9.300 6T 8.825 9 8.900 10 9.000 10T 36.025 10
2016-01-15 2016 Bravo Classic Phenom Gymnastics 10A 5 7-9yrs 9.400 3 8.925 5 8.900 10T 9.300 2T 36.525 3
2015-12-18 2015 Aspire Classic Phenom Gymnastics 12 5 Younger 9.050 5 8.950 7T 9.000 7 9.200 6T 36.200 5
2015-12-11 St. Nick Invite Phenom Gymnastics 6B 5 Child 8.750 4 9.200 5 8.525 11 9.100 7 35.575 7
2015-03-19 2015 Illinois Level 4 State Championship Phenom Gymnastics All 4 ChildB 9.225 2 9.050 10 9.150 14 9.475 2 36.900 3
2015-03-05 Spring Hill Elgin Invitational Phenom Gymnastics 4B 4 CHILD 8.550 8T 8.800 17T 8.225 41 9.225 13T 34.800 20
2015-02-21 BIG Classic Phenom Gymnastics 6A 4 Child A 9.000 2 8.725 8 9.325 4T 9.025 3 36.075 4
2015-01-23 King Arthur Invitational Phenom Gymnastics 10A 4 JrA 8.550 9 8.800 6 8.725 10 8.850 6 34.925 7
2014-12-12 2014 MEGA Magic Classic Phenom Gymnastics 2 4 Child A 8.700 3 8.550 7 8.600 6T 8.400 10 34.250 8
2014-03-07 Illinois Level 3 State Meet Phenom Gymnastics 4 3 Child B 9.600 4 8.925 20 9.325 7 9.450 7 37.300 7
2014-01-24 2014 UGA Super Invitational Phenom Gymnastics 3B 3 All Ages 9.725 4 8.800 25T 8.575 37T 9.450 7 36.550 17

www.lazysuits.com